Terminal Aerodrome Forecast
Issued by NWS

Home | Current Version | Previous Version | Text Only | Print | Product List | Glossary On
Versions: 1 2 3 4 5 6 7 8 9 10 11 12 13 14 15 16 17 18 19 20
000
FTUS46 KMTR 202200 AAC
TAFSTS
TAF AMD
KSTS 202227Z 2022/2118 11004KT P6SM -SHRA VCTS FEW025 BKN050CB
      OVC070
     FM210300 VRB03KT 4SM BR BKN006
     FM210700 00000KT 1/4SM FG OVC003
     FM211700 00000KT P6SM FEW006 BKN200=

USA.gov is the U.S. government's official web portal to all federal, state and local government web resources and services.